Time;durP1;ratioP1;P1;durP2;ratioP2;P2;SDS_P1;SDS_P2;PMS_P1;PMS_P2;Temp;Humidity;BMP_temperature;BMP_pressure;BME280_temperature;BME280_humidity;BME280_pressure;Samples;Min_cycle;Max_cycle;Signal;HPM_P1;HPM_P2
2023/04/02 00:01:48;;;;;;;2.58;1.60;;;;;;;;;;4959208;28;20098;-73
2023/04/02 00:04:20;;;;;;;2.20;1.60;;;;;;;;;;4958431;28;20031;-73
2023/04/02 00:06:48;;;;;;;2.22;1.40;;;;;;;;;;4961021;28;20280;-73
2023/04/02 00:09:13;;;;;;;3.25;1.73;;;;;;;;;;4960155;28;20031;-74
2023/04/02 00:11:39;;;;;;;2.83;1.50;;;;;;;;;;4961781;28;20049;-73
2023/04/02 00:14:12;;;;;;;3.55;1.83;;;;;;;;;;4949973;28;20560;-73
2023/04/02 00:16:37;;;;;;;3.03;2.03;;;;;;;;;;4960352;28;20111;-73
2023/04/02 00:19:05;;;;;;;3.25;1.80;;;;;;;;;;4959735;28;20495;-74
2023/04/02 00:21:32;;;;;;;3.58;1.60;;;;;;;;;;4943817;28;20102;-73
2023/04/02 00:24:01;;;;;;;2.78;1.55;;;;;;;;;;4961694;28;20452;-73
2023/04/02 00:26:27;;;;;;;;;;;;;;;;;;4960725;28;20065;-73
2023/04/02 00:28:52;;;;;;;4.57;2.00;;;;;;;;;;4963211;28;20405;-75
2023/04/02 00:31:18;;;;;;;3.38;2.00;;;;;;;;;;4961715;28;20031;-75
2023/04/02 00:33:44;;;;;;;2.80;1.77;;;;;;;;;;4947120;28;20436;-74
2023/04/02 00:36:09;;;;;;;2.47;1.73;;;;;;;;;;4963772;28;20035;-75
2023/04/02 00:38:35;;;;;;;2.80;1.70;;;;;;;;;;4958184;28;20034;-74
2023/04/02 00:41:02;;;;;;;4.47;1.98;;;;;;;;;;4960058;28;21054;-72
2023/04/02 00:43:29;;;;;;;3.08;2.05;;;;;;;;;;4959566;28;20031;-74
2023/04/02 00:45:56;;;;;;;3.15;2.10;;;;;;;;;;4960585;28;20400;-73
2023/04/02 00:48:31;;;;;;;3.58;2.20;;;;;;;;;;4942633;28;20046;-73
2023/04/02 00:51:06;;;;;;;3.65;1.88;;;;;;;;;;4962453;28;20027;-73
2023/04/02 00:53:33;;;;;;;3.30;1.92;;;;;;;;;;4960150;28;20031;-73
2023/04/02 00:55:58;;;;;;;3.22;2.05;;;;;;;;;;4959370;28;20067;-73
2023/04/02 00:58:26;;;;;;;2.60;1.98;;;;;;;;;;4943155;28;20095;-73
2023/04/02 01:00:52;;;;;;;3.38;2.38;;;;;;;;;;4941829;28;20476;-73
2023/04/02 01:03:18;;;;;;;6.18;2.45;;;;;;;;;;4942511;28;20034;-73
2023/04/02 01:05:44;;;;;;;7.83;2.50;;;;;;;;;;4960619;28;20042;-73
2023/04/02 01:08:27;;;;;;;4.45;2.22;;;;;;;;;;4959763;28;20276;-73
2023/04/02 01:11:11;;;;;;;3.92;2.50;;;;;;;;;;4940629;28;20504;-73
2023/04/02 01:13:42;;;;;;;3.85;2.28;;;;;;;;;;4959343;28;20078;-73
2023/04/02 01:16:19;;;;;;;2.85;1.92;;;;;;;;;;4944508;28;20026;-73
2023/04/02 01:18:52;;;;;;;5.43;2.17;;;;;;;;;;4942785;28;20504;-73
2023/04/02 01:21:36;;;;;;;3.78;2.20;;;;;;;;;;4957509;28;20042;-73
2023/04/02 01:24:01;;;;;;;4.07;1.92;;;;;;;;;;4961348;28;20048;-73
2023/04/02 01:26:26;;;;;;;4.43;2.27;;;;;;;;;;4959919;28;20704;-73
2023/04/02 01:29:01;;;;;;;3.80;2.15;;;;;;;;;;4961222;28;20584;-73
2023/04/02 01:31:27;;;;;;;3.13;2.20;;;;;;;;;;4959411;28;20492;-73
2023/04/02 01:33:52;;;;;;;5.13;2.63;;;;;;;;;;4960924;28;20373;-73
2023/04/02 01:36:23;;;;;;;5.10;2.40;;;;;;;;;;4960845;28;20042;-72
2023/04/02 01:38:53;;;;;;;4.05;2.50;;;;;;;;;;4942583;28;20126;-73
2023/04/02 01:41:48;;;;;;;3.72;2.20;;;;;;;;;;4959157;28;20062;-73
2023/04/02 01:44:15;;;;;;;3.65;2.30;;;;;;;;;;4948381;28;20042;-75
2023/04/02 01:46:41;;;;;;;4.25;2.80;;;;;;;;;;4942161;28;20038;-74
2023/04/02 01:49:12;;;;;;;4.85;2.60;;;;;;;;;;4949498;28;20042;-75
2023/04/02 01:51:39;;;;;;;6.50;2.95;;;;;;;;;;4938736;28;20023;-74
2023/04/02 01:54:05;;;;;;;4.53;2.20;;;;;;;;;;4943085;28;20109;-75
2023/04/02 01:56:31;;;;;;;4.32;2.47;;;;;;;;;;4959229;28;20650;-74
2023/04/02 01:58:57;;;;;;;7.00;2.75;;;;;;;;;;4958235;28;20097;-74
2023/04/02 02:01:25;;;;;;;5.57;2.70;;;;;;;;;;4956759;28;20034;-74
2023/04/02 02:03:51;;;;;;;5.25;2.47;;;;;;;;;;4959527;28;20046;-74
2023/04/02 02:06:17;;;;;;;5.68;2.75;;;;;;;;;;4955731;28;20023;-71
2023/04/02 02:08:53;;;;;;;3.60;2.35;;;;;;;;;;4958318;28;20031;-73
2023/04/02 02:11:21;;;;;;;4.25;2.60;;;;;;;;;;4949093;28;20378;-74
2023/04/02 02:13:47;;;;;;;4.53;2.70;;;;;;;;;;4940668;28;20035;-73
2023/04/02 02:16:16;;;;;;;4.97;2.53;;;;;;;;;;4957179;28;20023;-73
2023/04/02 02:18:42;;;;;;;;;;;;;;;;;;4949099;28;20540;-74
2023/04/02 02:21:08;;;;;;;4.35;2.65;;;;;;;;;;4959652;28;20017;-74
2023/04/02 02:23:34;;;;;;;4.57;2.75;;;;;;;;;;4944751;28;20046;-74
2023/04/02 02:25:59;;;;;;;4.10;2.60;;;;;;;;;;4959817;28;20050;-74
2023/04/02 02:28:34;;;;;;;4.00;2.60;;;;;;;;;;4943276;28;20785;-74
2023/04/02 02:31:03;;;;;;;5.72;2.90;;;;;;;;;;4959576;28;21606;-74
2023/04/02 02:33:42;;;;;;;6.60;2.65;;;;;;;;;;4959119;28;20079;-73
2023/04/02 02:36:26;;;;;;;4.07;2.60;;;;;;;;;;4959912;28;20083;-74
2023/04/02 02:39:02;;;;;;;5.93;2.67;;;;;;;;;;4958920;28;20042;-73
2023/04/02 02:41:49;;;;;;;6.80;2.53;;;;;;;;;;4956859;28;20074;-74
2023/04/02 02:44:33;;;;;;;3.58;2.38;;;;;;;;;;4957326;28;20862;-74
2023/04/02 02:47:00;;;;;;;5.40;2.80;;;;;;;;;;4958160;28;20529;-73
2023/04/02 02:49:34;;;;;;;6.50;3.05;;;;;;;;;;4942156;28;20023;-74
2023/04/02 02:51:59;;;;;;;6.82;2.92;;;;;;;;;;4958793;28;20552;-74
2023/04/02 02:54:26;;;;;;;5.05;3.13;;;;;;;;;;4959903;28;20110;-75
2023/04/02 02:56:57;;;;;;;5.28;3.03;;;;;;;;;;4940045;28;20023;-74
2023/04/02 02:59:23;;;;;;;5.60;3.30;;;;;;;;;;4956674;28;20045;-74
2023/04/02 03:01:48;;;;;;;6.15;3.20;;;;;;;;;;4956699;28;20034;-74
2023/04/02 03:04:19;;;;;;;6.05;2.80;;;;;;;;;;4960939;28;20027;-73
2023/04/02 03:06:49;;;;;;;4.85;3.35;;;;;;;;;;4957573;28;20519;-73
2023/04/02 03:09:32;;;;;;;5.72;2.90;;;;;;;;;;4959196;28;20038;-74
2023/04/02 03:12:05;;;;;;;4.78;2.95;;;;;;;;;;4959109;28;20703;-74
2023/04/02 03:14:32;;;;;;;4.90;2.80;;;;;;;;;;4959717;28;20149;-73
2023/04/02 03:17:01;;;;;;;4.55;2.95;;;;;;;;;;4954480;28;20494;-73
2023/04/02 03:19:42;;;;;;;6.07;3.80;;;;;;;;;;4942048;28;20121;-73
2023/04/02 03:22:20;;;;;;;6.18;3.03;;;;;;;;;;4956278;28;20866;-73
2023/04/02 03:24:58;;;;;;;5.67;3.00;;;;;;;;;;4957677;28;20106;-74
2023/04/02 03:27:39;;;;;;;5.20;3.22;;;;;;;;;;4959240;28;20085;-73
2023/04/02 03:30:17;;;;;;;4.47;2.83;;;;;;;6.91;nan;99586.72;4949580;28;20488;-74
2023/04/02 03:32:45;;;;;;;5.68;3.00;;;;;;;6.84;nan;99581.56;4943982;28;20065;-74
2023/04/02 03:35:55;;;;;;;6.43;3.50;;;;;;;6.79;nan;99591.91;4962057;28;20059;-72
2023/04/02 03:38:31;;;;;;;4.57;2.83;;;;;;;6.73;nan;99592.78;4921608;29;20040;-71
2023/04/02 03:41:00;;;;;;;8.65;3.13;;;;;;;6.72;nan;99605.03;4920945;29;20047;-72
2023/04/02 03:43:31;;;;;;;5.70;2.90;;;;;;;6.55;nan;99594.38;4921814;29;20032;-71
2023/04/02 03:46:29;;;;;;;4.72;3.22;;;;;;;6.54;nan;99599.84;4925059;29;20043;-72
2023/04/02 03:48:59;;;;;;;6.97;3.47;;;;;;;6.39;nan;99600.16;4919548;29;20123;-71
2023/04/02 03:51:36;;;;;;;4.85;3.15;;;;;;;6.30;nan;99593.66;4921810;29;20091;-71
2023/04/02 03:54:02;;;;;;;7.05;3.40;;;;;;;6.28;nan;99616.59;4922795;29;20044;-71
2023/04/02 03:56:38;;;;;;;6.60;3.47;;;;;;;;;;4922942;29;20043;-71
2023/04/02 03:59:22;;;;;;;8.57;3.83;;;;;;;6.36;nan;99651.09;4923080;29;20779;-73
2023/04/02 04:02:13;;;;;;;5.25;3.53;;;;;;;6.08;nan;99617.56;4922618;29;20036;-74
2023/04/02 04:04:42;;;;;;;5.68;3.00;;;;;;;5.93;nan;99604.00;4922472;29;20395;-73
2023/04/02 04:07:17;;;;;;;;;;;;;;;5.96;nan;99622.69;4919072;29;20258;-73
2023/04/02 04:09:45;;;;;;;5.03;3.00;;;;;;;5.79;nan;99608.50;4917978;29;19919;-74
2023/04/02 04:12:17;;;;;;;5.15;3.20;;;;;;;5.80;nan;99617.97;4925628;28;20507;-73
2023/04/02 04:14:50;;;;;;;5.45;3.47;;;;;;;5.67;nan;99610.22;4960418;28;20109;-73
2023/04/02 04:17:28;;;;;;;5.05;3.22;;;;;;;5.59;nan;99618.31;4963260;28;20034;-74
2023/04/02 04:20:06;;;;;;;5.20;3.17;;;;;;;5.53;nan;99630.38;4960605;28;20038;-74
2023/04/02 04:22:32;;;;;;;5.28;3.42;;;;;;;5.40;nan;99625.25;4960534;28;20046;-74
2023/04/02 04:24:59;;;;;;;6.38;3.45;;;;;;;;;;4961233;28;20035;-73
2023/04/02 04:27:33;;;;;;;7.95;3.55;;;;;;;;;;4962482;28;20085;-74
2023/04/02 04:30:02;;;;;;;6.03;3.42;;;;;;;;;;4963069;28;20037;-74
2023/04/02 04:32:32;;;;;;;7.03;3.67;;;;;;;5.27;nan;99666.09;4944812;28;20052;-73
2023/04/02 04:35:07;;;;;;;9.38;4.50;;;;;;;;;;4963812;28;20097;-75
2023/04/02 04:37:34;;;;;;;7.90;4.28;;;;;;;;;;4946242;28;20062;-73
2023/04/02 04:40:18;;;;;;;7.15;3.70;;;;;;;;;;4961420;28;20035;-74
2023/04/02 04:42:44;;;;;;;9.75;3.95;;;;;;;;;;4962727;28;20045;-74
2023/04/02 04:45:12;;;;;;;9.07;4.55;;;;;;;;;;4947940;28;20031;-74
2023/04/02 04:47:40;;;;;;;10.15;4.47;;;;;;;;;;4943963;28;20037;-74
2023/04/02 04:50:14;;;;;;;5.72;3.83;;;;;;;;;;4943437;28;20022;-74
2023/04/02 04:52:41;;;;;;;9.23;4.20;;;;;;;;;;4960894;28;20098;-72
2023/04/02 04:55:25;;;;;;;11.55;4.93;;;;;;;;;;4959595;28;20370;-73
2023/04/02 04:57:54;;;;;;;12.52;6.45;;;;;;;;;;4941390;28;20027;-72
2023/04/02 05:00:19;;;;;;;;;;;;;;;;;;4945847;28;20082;-72
2023/04/02 05:02:52;;;;;;;10.87;5.67;;;;;;;;;;4962293;28;19921;-72
2023/04/02 05:05:20;;;;;;;10.68;5.80;;;;;;;;;;4958249;28;20288;-72
2023/04/02 05:07:49;;;;;;;10.48;5.80;;;;;;;;;;4942209;28;20030;-73
2023/04/02 05:10:23;;;;;;;10.98;5.63;;;;;;;;;;4958323;28;20026;-70
2023/04/02 05:13:00;;;;;;;7.75;4.57;;;;;;;;;;4961422;28;20106;-72
2023/04/02 05:15:28;;;;;;;6.78;4.05;;;;;;;;;;4958680;28;20045;-70
2023/04/02 05:18:13;;;;;;;6.93;4.50;;;;;;;;;;4941384;28;20035;-71
2023/04/02 05:20:51;;;;;;;7.53;4.28;;;;;;;;;;4940846;28;20485;-72
2023/04/02 05:23:27;;;;;;;8.30;4.43;;;;;;;;;;4956276;28;20035;-73
2023/04/02 05:26:05;;;;;;;7.90;4.68;;;;;;;;;;4960637;28;20047;-72
2023/04/02 05:28:33;;;;;;;9.20;4.57;;;;;;;;;;4960371;28;20026;-72
2023/04/02 05:31:02;;;;;;;7.45;4.55;;;;;;;;;;4958003;28;20494;-72
2023/04/02 05:33:28;;;;;;;7.68;4.47;;;;;;;;;;4957766;28;20035;-72
2023/04/02 05:36:11;;;;;;;6.43;4.45;;;;;;;;;;4942097;28;20038;-72
2023/04/02 05:38:37;;;;;;;7.53;4.60;;;;;;;;;;4958275;28;20501;-71
2023/04/02 05:41:23;;;;;;;7.95;5.32;;;;;;;;;;4957135;28;20030;-72
2023/04/02 05:43:50;;;;;;;10.70;5.20;;;;;;;;;;4942648;28;20524;-72
2023/04/02 05:46:20;;;;;;;8.55;5.35;;;;;;;;;;4958095;28;20524;-72
2023/04/02 05:48:45;;;;;;;;;;;;;;;;;;4941113;28;20035;-71
2023/04/02 05:51:18;;;;;;;13.68;5.72;;;;;;;;;;4959358;28;19923;-72
2023/04/02 05:53:51;;;;;;;10.93;5.50;;;;;;;;;;4958181;28;20492;-72
2023/04/02 05:56:20;;;;;;;11.80;5.18;;;;;;;;;;4957987;28;20027;-72
2023/04/02 05:58:51;;;;;;;11.15;5.63;;;;;;;;;;4958620;28;20023;-74
2023/04/02 06:01:16;;;;;;;9.20;5.38;;;;;;;;;;4958477;28;20031;-74
2023/04/02 06:04:00;;;;;;;10.00;5.63;;;;;;;;;;4960150;28;20034;-75
2023/04/02 06:06:40;;;;;;;10.35;6.50;;;;;;;;;;4960411;28;20276;-74
2023/04/02 06:09:12;;;;;;;8.88;5.70;;;;;;;;;;4956248;28;20027;-75
2023/04/02 06:11:51;;;;;;;12.20;5.47;;;;;;;;;;4938986;28;20425;-74
2023/04/02 06:14:16;;;;;;;12.23;6.45;;;;;;;;;;4958963;28;20038;-74
2023/04/02 06:16:43;;;;;;;9.43;6.15;;;;;;;;;;4957551;28;20031;-74
2023/04/02 06:19:18;;;;;;;9.55;5.57;;;;;;;;;;4955057;28;20026;-74
2023/04/02 06:21:45;;;;;;;12.50;6.35;;;;;;;;;;4959749;28;20117;-74
2023/04/02 06:24:12;;;;;;;7.40;4.57;;;;;;;;;;4953869;28;20077;-74
2023/04/02 06:26:39;;;;;;;8.70;5.03;;;;;;;;;;4957823;28;20530;-74
2023/04/02 06:29:04;;;;;;;7.53;5.10;;;;;;;;;;4957992;28;20093;-73
2023/04/02 06:31:48;;;;;;;9.02;5.40;;;;;;;;;;4954619;28;20054;-72
2023/04/02 06:34:15;;;;;;;11.30;5.03;;;;;;;;;;4957918;28;20030;-74
2023/04/02 06:36:41;;;;;;;9.27;5.28;;;;;;;;;;4941890;28;20050;-74
2023/04/02 06:39:07;;;;;;;7.53;5.22;;;;;;;;;;4955158;28;20035;-74
2023/04/02 06:41:32;;;;;;;8.07;4.63;;;;;;;;;;4959591;28;20026;-75
2023/04/02 06:43:58;;;;;;;9.15;4.90;;;;;;;;;;4941088;28;20381;-74
2023/04/02 06:46:26;;;;;;;6.68;4.60;;;;;;;;;;4939492;28;20115;-75
2023/04/02 06:48:53;;;;;;;7.15;4.50;;;;;;;;;;4960135;28;20031;-75
2023/04/02 06:51:19;;;;;;;7.00;4.25;;;;;;;;;;4956829;28;20523;-74
2023/04/02 06:53:46;;;;;;;7.18;4.47;;;;;;;;;;4957130;28;20507;-71
2023/04/02 06:56:21;;;;;;;8.18;4.65;;;;;;;;;;4939233;28;20042;-72
2023/04/02 06:58:46;;;;;;;13.55;5.18;;;;;;;;;;4961241;28;20081;-73
2023/04/02 07:01:16;;;;;;;9.38;5.57;;;;;;;;;;4957317;28;20038;-73
2023/04/02 07:03:41;;;;;;;9.85;5.18;;;;;;;;;;4957302;28;20039;-72
2023/04/02 07:06:12;;;;;;;8.20;5.50;;;;;;;;;;4945792;28;20038;-73
2023/04/02 07:08:37;;;;;;;10.23;5.00;;;;;;;;;;4942290;28;20576;-73
2023/04/02 07:11:03;;;;;;;8.07;5.23;;;;;;;;;;4961606;28;20039;-73
2023/04/02 07:13:28;;;;;;;8.25;5.13;;;;;;;;;;4958062;28;20639;-73
2023/04/02 07:15:54;;;;;;;6.97;4.83;;;;;;;;;;4943231;28;20173;-74
2023/04/02 07:18:22;;;;;;;8.50;5.00;;;;;;;;;;4961109;28;20389;-73
2023/04/02 07:20:47;;;;;;;9.00;5.60;;;;;;;;;;4961278;28;20035;-73
2023/04/02 07:23:13;;;;;;;9.07;5.53;;;;;;;;;;4961665;28;20501;-73
2023/04/02 07:25:38;;;;;;;12.18;5.60;;;;;;;;;;4958767;28;20368;-73
2023/04/02 07:28:04;;;;;;;9.47;5.40;;;;;;;;;;4946452;28;20059;-73
2023/04/02 07:30:29;;;;;;;10.02;5.85;;;;;;;;;;4942846;28;20301;-73
2023/04/02 07:32:55;;;;;;;12.77;7.55;;;;;;;;;;4953121;28;20487;-73
2023/04/02 07:35:21;;;;;;;9.13;6.15;;;;;;;;;;4940990;28;20041;-73
2023/04/02 07:37:46;;;;;;;9.35;5.78;;;;;;;;;;4937286;28;20896;-74
2023/04/02 07:40:16;;;;;;;9.43;5.87;;;;;;;;;;4941367;28;20031;-74
2023/04/02 07:42:41;;;;;;;9.95;6.20;;;;;;;;;;4943510;28;20357;-73
2023/04/02 07:45:07;;;;;;;9.83;5.97;;;;;;;;;;4942260;28;20031;-73
2023/04/02 07:47:32;;;;;;;9.90;6.32;;;;;;;;;;4940800;28;20328;-73
2023/04/02 07:49:58;;;;;;;8.83;5.77;;;;;;;;;;4941419;28;20707;-73
2023/04/02 07:52:23;;;;;;;8.10;5.90;;;;;;;;;;4942455;28;20377;-73
2023/04/02 07:54:48;;;;;;;10.37;6.00;;;;;;;;;;4937944;28;20848;-73
2023/04/02 07:57:13;;;;;;;8.90;5.70;;;;;;;;;;4947367;28;20340;-73
2023/04/02 07:59:39;;;;;;;9.13;6.10;;;;;;;;;;4942306;28;20281;-73
2023/04/02 08:02:04;;;;;;;10.43;5.87;;;;;;;;;;4943028;28;20027;-73
2023/04/02 08:04:29;;;;;;;8.07;5.07;;;;;;;;;;4941189;28;20062;-72
2023/04/02 08:06:55;;;;;;;8.60;4.97;;;;;;;;;;4940670;28;20038;-73
2023/04/02 08:09:20;;;;;;;9.43;5.80;;;;;;;;;;4941076;28;20434;-73
2023/04/02 08:11:46;;;;;;;10.50;5.78;;;;;;;;;;4940917;28;20102;-74
2023/04/02 08:14:11;;;;;;;7.80;5.57;;;;;;;;;;4939949;28;20044;-74
2023/04/02 08:16:47;;;;;;;8.17;5.63;;;;;;;;;;4939853;28;20457;-74
2023/04/02 08:19:13;;;;;;;9.07;5.70;;;;;;;;;;4942137;28;21055;-74
2023/04/02 08:21:38;;;;;;;7.93;5.18;;;;;;;;;;4940563;28;20034;-74
2023/04/02 08:24:04;;;;;;;8.50;5.20;;;;;;;;;;4939311;28;20659;-74
2023/04/02 08:26:30;;;;;;;9.30;6.32;;;;;;;;;;4945899;28;20109;-75
2023/04/02 08:28:55;;;;;;;7.22;5.13;;;;;;;;;;4964212;28;20030;-74
2023/04/02 08:31:20;;;;;;;11.55;5.45;;;;;;;;;;4959469;28;20069;-73
2023/04/02 08:33:45;;;;;;;7.95;5.63;;;;;;;;;;4960917;28;20031;-73
2023/04/02 08:36:17;;;;;;;9.33;5.80;;;;;;;;;;4941522;28;20039;-74
2023/04/02 08:38:42;;;;;;;8.77;5.53;;;;;;;;;;4961114;28;20293;-74
2023/04/02 08:41:15;;;;;;;6.90;5.00;;;;;;;;;;4963159;28;20622;-73
2023/04/02 08:43:48;;;;;;;7.18;5.45;;;;;;;;;;4960589;28;20039;-73
2023/04/02 08:46:18;;;;;;;9.98;5.93;;;;;;;;;;4962026;28;20034;-74
2023/04/02 08:48:46;;;;;;;9.85;6.22;;;;;;;;;;4958413;28;20023;-74
2023/04/02 08:51:26;;;;;;;6.35;4.82;;;;;;;;;;4960722;28;20502;-73
2023/04/02 08:53:54;;;;;;;9.65;5.85;;;;;;;;;;4944803;28;20054;-73
2023/04/02 08:56:25;;;;;;;6.82;4.90;;;;;;;;;;4943858;28;20066;-73
2023/04/02 08:58:55;;;;;;;7.25;5.00;;;;;;;10.92;nan;99825.94;4958133;28;20050;-73
2023/04/02 09:01:23;;;;;;;7.60;4.80;;;;;;;;;;4959145;28;20261;-74
2023/04/02 09:03:50;;;;;;;10.47;4.97;;;;;;;;;;4958780;28;20042;-73
2023/04/02 09:06:17;;;;;;;7.07;4.43;;;;;;;;;;4944181;28;20033;-72
2023/04/02 09:08:45;;;;;;;9.02;5.30;;;;;;;;;;4943341;28;20117;-73
2023/04/02 09:11:20;;;;;;;7.35;5.32;;;;;;;;;;4962117;28;20050;-73
2023/04/02 09:13:47;;;;;;;9.38;5.10;;;;;;;;;;4955147;28;20039;-73
2023/04/02 09:16:14;;;;;;;8.32;5.88;;;;;;;;;;4945568;28;20728;-73
2023/04/02 09:18:41;;;;;;;8.70;6.20;;;;;;;;;;4960633;28;20169;-72
2023/04/02 09:21:17;;;;;;;8.60;5.50;;;;;;;;;;4955816;28;20035;-73
2023/04/02 09:23:42;;;;;;;6.47;4.93;;;;;;;;;;4960702;28;20516;-73
2023/04/02 09:26:37;;;;;;;10.13;4.77;;;;;;;;;;4958474;28;20055;-73
2023/04/02 09:29:11;;;;;;;6.57;4.65;;;;;;;;;;4950507;28;20414;-73
2023/04/02 09:31:38;;;;;;;8.70;5.57;;;;;;;;;;4960618;28;20102;-73
2023/04/02 09:34:23;;;;;;;7.20;4.80;;;;;;;;;;4943770;28;20034;-73
2023/04/02 09:36:48;;;;;;;6.95;4.88;;;;;;;;;;4956745;28;20044;-74
2023/04/02 09:39:16;;;;;;;9.27;5.50;;;;;;;;;;4942034;28;20392;-73
2023/04/02 09:41:42;;;;;;;11.18;5.13;;;;;;;;;;4943353;28;20375;-73
2023/04/02 09:44:12;;;;;;;7.05;4.90;;;;;;;;;;4942155;28;20121;-72
2023/04/02 09:46:46;;;;;;;8.15;4.93;;;;;;;;;;4960131;28;20485;-73
2023/04/02 09:49:14;;;;;;;8.40;5.50;;;;;;;;;;4959731;28;20460;-74
2023/04/02 09:51:40;;;;;;;7.65;5.60;;;;;;;;;;4960806;28;20023;-73
2023/04/02 09:54:05;;;;;;;7.60;5.27;;;;;;;;;;4955351;28;20485;-73
2023/04/02 09:56:32;;;;;;;6.32;4.40;;;;;;;;;;4957310;28;20336;-73
2023/04/02 09:59:05;;;;;;;7.13;5.20;;;;;;;;;;4959648;28;20105;-74
2023/04/02 10:01:34;;;;;;;6.57;4.85;;;;;;;;;;4960359;28;20516;-74
2023/04/02 10:04:00;;;;;;;;;;;;;;;;;;4959036;28;20039;-73
2023/04/02 10:06:27;;;;;;;5.60;4.10;;;;;;;;;;4943895;28;19918;-73
2023/04/02 10:08:52;;;;;;;5.35;3.83;;;;;;;;;;4941664;28;20097;-72
2023/04/02 10:11:18;;;;;;;6.60;4.50;;;;;;;;;;4943409;28;20082;-73
2023/04/02 10:14:02;;;;;;;7.00;4.78;;;;;;;;;;4957305;28;20031;-73
2023/04/02 10:16:31;;;;;;;5.93;4.20;;;;;;;;;;4964125;28;20086;-74
2023/04/02 10:19:18;;;;;;;9.25;5.30;;;;;;;;;;4946306;28;20042;-74
2023/04/02 10:21:46;;;;;;;8.05;4.65;;;;;;;;;;4941890;28;20049;-72
2023/04/02 10:24:12;;;;;;;7.30;4.32;;;;;;;;;;4959194;28;20442;-73
2023/04/02 10:26:40;;;;;;;6.68;4.28;;;;;;;;;;4958099;28;20047;-74
2023/04/02 10:29:08;;;;;;;6.05;4.43;;;;;;;;;;4940616;28;20122;-75
2023/04/02 10:31:43;;;;;;;5.57;3.97;;;;;;;;;;4941199;28;20434;-75
2023/04/02 10:34:14;;;;;;;5.90;4.40;;;;;;;;;;4959139;28;20031;-75
2023/04/02 10:36:54;;;;;;;5.45;4.03;;;;;;;;;;4960998;28;20038;-75
2023/04/02 10:39:19;;;;;;;;;;;;;;;;;;4961712;28;20091;-75
2023/04/02 10:41:55;;;;;;;5.50;4.00;;;;;;;;;;4957593;28;20396;-75
2023/04/02 10:44:30;;;;;;;6.05;4.18;;;;;;;;;;4957066;28;20653;-75
2023/04/02 10:47:04;;;;;;;5.82;3.60;;;;;;;;;;4963484;28;20729;-75
2023/04/02 10:49:39;;;;;;;6.75;4.03;;;;;;;;;;4960970;28;20065;-72
2023/04/02 10:52:12;;;;;;;5.03;3.95;;;;;;;;;;4963407;28;20062;-75
2023/04/02 10:54:40;;;;;;;7.38;4.50;;;;;;;;;;4956030;28;20030;-75
2023/04/02 10:57:06;;;;;;;5.85;4.30;;;;;;;;;;4941742;28;20481;-75
2023/04/02 10:59:33;;;;;;;5.97;4.20;;;;;;;;;;4939659;28;20034;-76
2023/04/02 11:02:00;;;;;;;5.68;4.15;;;;;;;;;;4958654;28;20023;-74
2023/04/02 11:04:36;;;;;;;7.45;5.30;;;;;;;;;;4937201;28;20078;-74
2023/04/02 11:07:04;;;;;;;5.15;3.92;;;;;;;;;;4958171;28;20030;-74
2023/04/02 11:09:31;;;;;;;5.97;4.38;;;;;;;;;;4956187;28;20030;-74
2023/04/02 11:11:58;;;;;;;5.43;4.28;;;;;;;;;;4938737;28;20051;-74
2023/04/02 11:14:27;;;;;;;5.95;4.38;;;;;;;;;;4941936;28;20743;-74
2023/04/02 11:16:52;;;;;;;;;;;;;;;;;;4949745;28;20110;-74
2023/04/02 11:19:18;;;;;;;5.75;3.60;;;;;;;;;;4955207;28;19926;-74
2023/04/02 11:21:48;;;;;;;5.53;4.00;;;;;;;;;;4953686;28;20031;-75
2023/04/02 11:24:22;;;;;;;7.30;3.95;;;;;;;;;;4958491;28;20031;-74
2023/04/02 11:26:48;;;;;;;5.07;3.65;;;;;;;;;;4960011;28;21148;-75
2023/04/02 11:29:15;;;;;;;7.72;3.92;;;;;;;;;;4958220;28;20027;-74
2023/04/02 11:31:41;;;;;;;5.90;3.92;;;;;;;;;;4961224;28;20026;-73
2023/04/02 11:34:11;;;;;;;4.47;3.50;;;;;;;;;;4956939;28;20389;-73
2023/04/02 11:36:48;;;;;;;5.40;4.13;;;;;;;;;;4958506;28;20054;-73
2023/04/02 11:39:34;;;;;;;6.13;4.18;;;;;;;;;;4959096;28;20489;-74
2023/04/02 11:42:01;;;;;;;6.63;4.22;;;;;;;;;;4941515;28;20051;-73
2023/04/02 11:44:26;;;;;;;5.68;3.95;;;;;;;;;;4937083;28;20057;-75
2023/04/02 11:46:51;;;;;;;5.80;3.80;;;;;;;;;;4961154;28;20477;-73
2023/04/02 11:49:36;;;;;;;5.87;3.83;;;;;;;;;;4961457;28;20283;-75
2023/04/02 11:52:03;;;;;;;5.63;4.00;;;;;;;;;;4959143;28;20320;-74
2023/04/02 11:54:36;;;;;;;5.53;3.67;;;;;;;;;;4944959;28;20044;-74
2023/04/02 11:57:16;;;;;;;4.70;3.50;;;;;;;;;;4942465;28;20478;-74
2023/04/02 11:59:41;;;;;;;4.60;3.28;;;;;;;;;;4944783;28;20149;-73
2023/04/02 12:02:24;;;;;;;6.60;3.80;;;;;;;;;;4957604;28;20819;-74
2023/04/02 12:05:06;;;;;;;5.72;3.67;;;;;;;;;;4957551;28;20674;-74
2023/04/02 12:07:50;;;;;;;4.78;3.00;;;;;;;;;;4944739;28;20023;-74
2023/04/02 12:10:22;;;;;;;6.65;3.13;;;;;;;;;;4961361;28;20022;-74
2023/04/02 12:12:48;;;;;;;4.85;2.95;;;;;;;;;;4957735;28;20069;-74
2023/04/02 12:15:46;;;;;;;5.45;3.30;;;;;;;14.12;nan;99822.84;4961373;28;20075;-74
2023/04/02 12:18:15;;;;;;;5.63;3.45;;;;;;;14.15;nan;99827.63;4955752;28;20464;-72
2023/04/02 12:20:46;;;;;;;5.40;3.60;;;;;;;14.00;nan;99820.44;4949554;28;20031;-71
2023/04/02 12:23:18;;;;;;;6.07;3.90;;;;;;;13.99;nan;99816.19;4959313;28;20096;-71
2023/04/02 12:25:51;;;;;;;5.90;3.40;;;;;;;13.94;nan;99812.75;4959311;28;20034;-71
2023/04/02 12:28:17;;;;;;;6.00;4.13;;;;;;;13.93;nan;99819.09;4929299;29;20048;-71
2023/04/02 12:30:45;;;;;;;6.22;3.58;;;;;;;13.85;nan;99798.44;4946050;28;20029;-68
2023/04/02 12:33:27;;;;;;;5.45;3.08;;;;;;;13.95;nan;99804.53;4942800;28;20057;-71
2023/04/02 12:36:00;;;;;;;4.10;3.25;;;;;;;13.96;nan;99782.31;4944792;28;20059;-69
2023/04/02 12:38:35;;;;;;;5.85;2.90;;;;;;;14.10;nan;99792.38;4927462;29;20122;-68
2023/04/02 12:41:17;;;;;;;3.50;2.95;;;;;;;14.13;nan;99784.72;4941078;28;20055;-71
2023/04/02 12:43:43;;;;;;;4.00;2.97;;;;;;;14.15;nan;99785.25;4944912;28;20102;-72
2023/04/02 12:46:11;;;;;;;4.35;3.00;;;;;;;14.23;nan;99790.03;4944635;28;20106;-69
2023/04/02 12:48:38;;;;;;;4.35;2.72;;;;;;;14.25;nan;99790.56;4942595;28;20027;-70
2023/04/02 12:51:03;;;;;;;5.85;3.00;;;;;;;14.20;nan;99787.13;4923619;29;20494;-72
2023/04/02 12:53:35;;;;;;;4.82;3.72;;;;;;;14.31;nan;99788.69;4926426;28;20035;-71
2023/04/02 12:56:01;;;;;;;5.68;3.45;;;;;;;14.32;nan;99787.66;4925799;29;20505;-70
2023/04/02 12:58:31;;;;;;;4.60;2.80;;;;;;;14.44;nan;99788.19;4945697;28;20028;-69
2023/04/02 13:01:12;;;;;;;3.95;2.65;;;;;;;14.55;nan;99794.28;4925483;29;20050;-68
2023/04/02 13:03:37;;;;;;;4.03;2.80;;;;;;;14.62;nan;99801.97;4941294;28;20110;-69
2023/04/02 13:06:17;;;;;;;4.20;3.00;;;;;;;14.63;nan;99785.81;4940693;28;20055;-70
2023/04/02 13:08:42;;;;;;;4.22;2.72;;;;;;;14.79;nan;99793.75;4912038;29;20047;-69
2023/04/02 13:11:08;;;;;;;3.75;2.60;;;;;;;14.80;nan;99788.19;4942589;28;20032;-69
2023/04/02 13:13:36;;;;;;;2.78;1.95;;;;;;;14.87;nan;99795.88;4929642;29;20155;-70
2023/04/02 13:16:23;;;;;;;3.80;2.58;;;;;;;14.80;nan;99785.53;4925378;28;20039;-71
2023/04/02 13:18:49;;;;;;;3.65;2.33;;;;;;;14.86;nan;99797.69;4941492;28;20063;-71
2023/04/02 13:21:15;;;;;;;3.33;2.30;;;;;;;14.99;nan;99800.84;4925424;28;20019;-72
2023/04/02 13:23:41;;;;;;;4.05;2.40;;;;;;;15.05;nan;99787.31;4941387;28;20430;-71
2023/04/02 13:26:09;;;;;;;2.83;1.90;;;;;;;15.15;nan;99789.16;4945680;28;20085;-71
2023/04/02 13:28:34;;;;;;;2.50;2.00;;;;;;;15.18;nan;99779.84;4957498;28;20027;-72
2023/04/02 13:31:00;;;;;;;7.50;2.80;;;;;;;15.17;nan;99755.19;4959027;28;20377;-71
2023/04/02 13:33:26;;;;;;;4.68;2.40;;;;;;;15.35;nan;99763.63;4962675;28;20381;-72
2023/04/02 13:35:51;;;;;;;2.20;1.85;;;;;;;15.36;nan;99763.34;4960085;28;20031;-71
2023/04/02 13:38:17;;;;;;;3.25;1.90;;;;;;;15.43;nan;99771.81;4958933;28;20447;-71
2023/04/02 13:40:42;;;;;;;2.85;2.33;;;;;;;15.44;nan;99775.25;4958557;28;20034;-72
2023/04/02 13:43:16;;;;;;;3.25;1.83;;;;;;;15.55;nan;99790.06;4959666;28;20052;-72
2023/04/02 13:45:41;;;;;;;3.08;2.47;;;;;;;15.57;nan;99792.47;4940497;28;20456;-70
2023/04/02 13:48:14;;;;;;;3.45;2.25;;;;;;;15.59;nan;99793.00;4960815;28;20062;-71
2023/04/02 13:50:40;;;;;;;3.10;2.15;;;;;;;15.65;nan;99795.31;4957988;28;20030;-69
2023/04/02 13:53:10;;;;;;;3.35;2.40;;;;;;;15.60;nan;99776.78;4959727;28;20034;-68
2023/04/02 13:55:40;;;;;;;3.45;2.00;;;;;;;15.74;nan;99787.63;4960608;28;20038;-70
2023/04/02 13:58:06;;;;;;;3.67;2.30;;;;;;;15.76;nan;99790.00;4961825;28;20418;-70
2023/04/02 14:00:35;;;;;;;3.28;2.20;;;;;;;15.82;nan;99804.81;4956552;28;20081;-69
2023/04/02 14:03:18;;;;;;;3.50;2.20;;;;;;;15.89;nan;99795.47;4941592;28;20061;-69
2023/04/02 14:06:01;;;;;;;3.25;2.50;;;;;;;16.00;nan;99785.59;4957619;28;20037;-67
2023/04/02 14:09:03;;;;;;;4.00;2.50;;;;;;;15.98;nan;99790.41;4958950;28;20430;-69
2023/04/02 14:11:49;;;;;;;2.53;1.80;;;;;;;16.09;nan;99791.94;4937961;28;20038;-68
2023/04/02 14:14:24;;;;;;;2.75;1.73;;;;;;;16.11;nan;99789.78;4941279;28;20674;-68
2023/04/02 14:17:14;;;;;;;3.20;1.90;;;;;;;16.15;nan;99782.84;4957344;28;20694;-69
2023/04/02 14:19:52;;;;;;;5.93;2.63;;;;;;;16.15;nan;99790.00;4961221;28;20035;-69
2023/04/02 14:23:16;;;;;;;3.97;2.30;;;;;;;16.13;nan;99792.16;4960306;28;20030;-68